PWSweather.com
Personal Weather Stations
Station Observations
KA1WBH
West Island, Fairhaven, MA 02719

West IslandFairhaven, MA 02719

Lat: 41.5979996, Lon: -70.8330002

Elevation: 78

Station Type: Davis Vantage Pro II

Latest ConditionsUpdated 11:15:05 AM EDT Monday, Apr 27, 2015
Currently Today's Max Today's Min Today's Average
Temperature 54.8°F12.7°C 54.8°F12.7°C 45.7°F7.6°C 48.4°F9.1°C
Dew Point 41.2°F5.1°C 41.8°F5.4°C 37.9°F3.3°C 39.5°F4.2°C
Winds 5.0 mph NW8.0 kmh NW 13.0 mph NNW20.9 kmh NNW - 3.9 mph 6.3 kmh
Wind Gusts 11.0 mph17.7 kmh 17.0 mph27.4 kmh - -
Humidity 60% 85% 59% 72%
Pressure 29.59 in1002.0 mb 29.63 in1003.4 mb 29.59 in1002.0 mb -
Hour Temp Dew Point Humidity Winds Wind Gusts Pressure Precip Precip Rate Daily Precip Total
11:15 AM 54.8°F12.7°C 41.2°F5.1°C 60% 5.0 mph NW8.0 kmh NW 11.0 mph17.7 kmh 29.59 in1002.0 mb 0.00 in0.0 mm 0.00 in0.0 mm 0.00 in0.0 mm
11:00 AM 54.2°F12.3°C 40.2°F4.6°C 59% 7.0 mph NW11.3 kmh NW 11.0 mph17.7 kmh 29.59 in1002.0 mb 0.00 in0.0 mm 0.00 in0.0 mm 0.00 in0.0 mm
10:45 AM 53.5°F11.9°C 40.0°F4.4°C 60% Calm Calm 11.0 mph17.7 kmh 29.59 in1002.0 mb 0.00 in0.0 mm 0.00 in0.0 mm 0.00 in0.0 mm
10:30 AM 53.5°F11.9°C 40.8°F4.9°C 62% 6.0 mph NW9.7 kmh NW 12.0 mph19.3 kmh 29.60 in1002.4 mb 0.00 in0.0 mm 0.00 in0.0 mm 0.00 in0.0 mm
10:15 AM 52.0°F11.1°C 39.4°F4.1°C 62% 4.0 mph NW6.4 kmh NW 12.0 mph19.3 kmh 29.60 in1002.4 mb 0.00 in0.0 mm 0.00 in0.0 mm 0.00 in0.0 mm
10:00 AM 51.5°F10.8°C 40.5°F4.7°C 66% 6.0 mph NW9.7 kmh NW 12.0 mph19.3 kmh 29.59 in1002.0 mb 0.00 in0.0 mm 0.00 in0.0 mm 0.00 in0.0 mm
09:45 AM 50.4°F10.2°C 39.9°F4.4°C 67% 3.0 mph NNW4.8 kmh NNW 11.0 mph17.7 kmh 29.60 in1002.4 mb 0.00 in0.0 mm 0.00 in0.0 mm 0.00 in0.0 mm
09:30 AM 50.3°F10.2°C 39.4°F4.1°C 66% 7.0 mph NW11.3 kmh NW 14.0 mph22.5 kmh 29.60 in1002.4 mb 0.00 in0.0 mm 0.00 in0.0 mm 0.00 in0.0 mm
09:15 AM 50.1°F10.1°C 39.6°F4.2°C 67% 6.0 mph NW9.7 kmh NW 13.0 mph20.9 kmh 29.60 in1002.4 mb 0.00 in0.0 mm 0.00 in0.0 mm 0.00 in0.0 mm
09:00 AM 49.9°F9.9°C 39.4°F4.1°C 67% 8.0 mph N12.9 kmh N 17.0 mph27.4 kmh 29.60 in1002.4 mb 0.00 in0.0 mm 0.00 in0.0 mm 0.00 in0.0 mm
08:45 AM 49.5°F9.7°C 39.0°F3.9°C 67% 12.0 mph NW19.3 kmh NW 15.0 mph24.1 kmh 29.60 in1002.4 mb 0.00 in0.0 mm 0.00 in0.0 mm 0.00 in0.0 mm
08:30 AM 49.2°F9.6°C 38.7°F3.7°C 67% 2.0 mph NW3.2 kmh NW 14.0 mph22.5 kmh 29.60 in1002.4 mb 0.00 in0.0 mm 0.00 in0.0 mm 0.00 in0.0 mm
08:15 AM 49.2°F9.6°C 38.3°F3.5°C 66% 11.0 mph NNW17.7 kmh NNW 15.0 mph24.1 kmh 29.60 in1002.4 mb 0.00 in0.0 mm 0.00 in0.0 mm 0.00 in0.0 mm
08:00 AM 48.9°F9.4°C 38.1°F3.4°C 66% 5.0 mph NNW8.0 kmh NNW 15.0 mph24.1 kmh 29.61 in1002.7 mb 0.00 in0.0 mm 0.00 in0.0 mm 0.00 in0.0 mm
07:45 AM 48.6°F9.2°C 38.5°F3.6°C 68% 13.0 mph NNW20.9 kmh NNW 15.0 mph24.1 kmh 29.61 in1002.7 mb 0.00 in0.0 mm 0.00 in0.0 mm 0.00 in0.0 mm
07:30 AM 48.8°F9.3°C 38.7°F3.7°C 68% 7.0 mph NNW11.3 kmh NNW 12.0 mph19.3 kmh 29.61 in1002.7 mb 0.00 in0.0 mm 0.00 in0.0 mm 0.00 in0.0 mm
07:15 AM 48.4°F9.1°C 38.7°F3.7°C 69% 1.0 mph WNW1.6 kmh WNW 12.0 mph19.3 kmh 29.61 in1002.7 mb 0.00 in0.0 mm 0.00 in0.0 mm 0.00 in0.0 mm
07:00 AM 47.6°F8.7°C 38.7°F3.7°C 71% 5.0 mph NNW8.0 kmh NNW 12.0 mph19.3 kmh 29.61 in1002.7 mb 0.00 in0.0 mm 0.00 in0.0 mm 0.00 in0.0 mm
06:45 AM 47.1°F8.4°C 38.2°F3.4°C 71% 6.0 mph NNW9.7 kmh NNW 14.0 mph22.5 kmh 29.61 in1002.7 mb 0.00 in0.0 mm 0.00 in0.0 mm 0.00 in0.0 mm
06:30 AM 46.6°F8.1°C 38.1°F3.4°C 72% 3.0 mph N4.8 kmh N 12.0 mph19.3 kmh 29.61 in1002.7 mb 0.00 in0.0 mm 0.00 in0.0 mm 0.00 in0.0 mm
06:15 AM 46.6°F8.1°C 38.1°F3.4°C 72% 2.0 mph NNW3.2 kmh NNW 10.0 mph16.1 kmh 29.60 in1002.4 mb 0.00 in0.0 mm 0.00 in0.0 mm 0.00 in0.0 mm
06:00 AM 46.5°F8.1°C 38.0°F3.3°C 72% 4.0 mph NNW6.4 kmh NNW 11.0 mph17.7 kmh 29.60 in1002.4 mb 0.00 in0.0 mm 0.00 in0.0 mm 0.00 in0.0 mm
05:45 AM 46.4°F8.0°C 37.9°F3.3°C 72% 4.0 mph NNW6.4 kmh NNW 9.0 mph14.5 kmh 29.60 in1002.4 mb 0.00 in0.0 mm 0.00 in0.0 mm 0.00 in0.0 mm
05:30 AM 46.6°F8.1°C 38.1°F3.4°C 72% 4.0 mph NW6.4 kmh NW 10.0 mph16.1 kmh 29.60 in1002.4 mb 0.00 in0.0 mm 0.00 in0.0 mm 0.00 in0.0 mm
05:15 AM 47.1°F8.4°C 38.6°F3.7°C 72% 3.0 mph NW4.8 kmh NW 6.0 mph9.7 kmh 29.60 in1002.4 mb 0.00 in0.0 mm 0.00 in0.0 mm 0.00 in0.0 mm
05:00 AM 47.3°F8.5°C 38.7°F3.7°C 72% 1.0 mph NW1.6 kmh NW 7.0 mph11.3 kmh 29.60 in1002.4 mb 0.00 in0.0 mm 0.00 in0.0 mm 0.00 in0.0 mm
04:45 AM 47.4°F8.6°C 38.5°F3.6°C 71% 5.0 mph NW8.0 kmh NW 9.0 mph14.5 kmh 29.60 in1002.4 mb 0.00 in0.0 mm 0.00 in0.0 mm 0.00 in0.0 mm
04:30 AM 47.4°F8.6°C 38.8°F3.8°C 72% 5.0 mph NW8.0 kmh NW 9.0 mph14.5 kmh 29.60 in1002.4 mb 0.00 in0.0 mm 0.00 in0.0 mm 0.00 in0.0 mm
04:15 AM 47.6°F8.7°C 38.7°F3.7°C 71% 1.0 mph NW1.6 kmh NW 3.0 mph4.8 kmh 29.61 in1002.7 mb 0.00 in0.0 mm 0.00 in0.0 mm 0.00 in0.0 mm
04:00 AM 47.8°F8.8°C 38.5°F3.6°C 70% 1.0 mph NW1.6 kmh NW 5.0 mph8.0 kmh 29.61 in1002.7 mb 0.00 in0.0 mm 0.00 in0.0 mm 0.00 in0.0 mm
03:45 AM 47.7°F8.7°C 38.8°F3.8°C 71% 3.0 mph NW4.8 kmh NW 9.0 mph14.5 kmh 29.61 in1002.7 mb 0.00 in0.0 mm 0.00 in0.0 mm 0.00 in0.0 mm
03:30 AM 47.8°F8.8°C 39.2°F4.0°C 72% 2.0 mph NW3.2 kmh NW 6.0 mph9.7 kmh 29.61 in1002.7 mb 0.00 in0.0 mm 0.00 in0.0 mm 0.00 in0.0 mm
03:15 AM 47.8°F8.8°C 39.6°F4.2°C 73% 4.0 mph WNW6.4 kmh WNW 7.0 mph11.3 kmh 29.62 in1003.0 mb 0.00 in0.0 mm 0.00 in0.0 mm 0.00 in0.0 mm
03:00 AM 47.7°F8.7°C 40.2°F4.6°C 75% 1.0 mph WNW1.6 kmh WNW 5.0 mph8.0 kmh 29.61 in1002.7 mb 0.00 in0.0 mm 0.00 in0.0 mm 0.00 in0.0 mm
02:45 AM 47.7°F8.7°C 39.8°F4.3°C 74% 4.0 mph WNW6.4 kmh WNW 5.0 mph8.0 kmh 29.61 in1002.7 mb 0.00 in0.0 mm 0.00 in0.0 mm 0.00 in0.0 mm
02:30 AM 47.8°F8.8°C 40.6°F4.8°C 76% 3.0 mph WNW4.8 kmh WNW 5.0 mph8.0 kmh 29.61 in1002.7 mb 0.00 in0.0 mm 0.00 in0.0 mm 0.00 in0.0 mm
02:15 AM 47.9°F8.8°C 40.4°F4.7°C 75% 5.0 mph WNW8.0 kmh WNW 8.0 mph12.9 kmh 29.61 in1002.7 mb 0.00 in0.0 mm 0.00 in0.0 mm 0.00 in0.0 mm
02:00 AM 47.6°F8.7°C 40.1°F4.5°C 75% 7.0 mph W11.3 kmh W 7.0 mph11.3 kmh 29.62 in1003.0 mb 0.00 in0.0 mm 0.00 in0.0 mm 0.00 in0.0 mm
01:45 AM 47.2°F8.4°C 40.4°F4.7°C 77% 1.0 mph WSW1.6 kmh WSW 5.0 mph8.0 kmh 29.62 in1003.0 mb 0.00 in0.0 mm 0.00 in0.0 mm 0.00 in0.0 mm
01:30 AM 46.9°F8.3°C 40.7°F4.8°C 79% Calm Calm 4.0 mph6.4 kmh 29.62 in1003.0 mb 0.00 in0.0 mm 0.00 in0.0 mm 0.00 in0.0 mm
01:15 AM 46.4°F8.0°C 41.2°F5.1°C 82% 1.0 mph WSW1.6 kmh WSW 5.0 mph8.0 kmh 29.62 in1003.0 mb 0.00 in0.0 mm 0.00 in0.0 mm 0.00 in0.0 mm
01:00 AM 46.0°F7.8°C 41.8°F5.4°C 85% Calm Calm 2.0 mph3.2 kmh 29.62 in1003.0 mb 0.00 in0.0 mm 0.00 in0.0 mm 0.00 in0.0 mm
12:45 AM 45.9°F7.7°C 41.7°F5.4°C 85% Calm Calm 3.0 mph4.8 kmh 29.62 in1003.0 mb 0.00 in0.0 mm 0.00 in0.0 mm 0.00 in0.0 mm
12:30 AM 45.7°F7.6°C 41.5°F5.3°C 85% Calm Calm 2.0 mph3.2 kmh 29.62 in1003.0 mb 0.00 in0.0 mm 0.00 in0.0 mm 0.00 in0.0 mm
12:15 AM 45.8°F7.7°C 41.6°F5.3°C 85% Calm Calm -- 29.63 in1003.4 mb 0.00 in0.0 mm 0.00 in0.0 mm 0.00 in0.0 mm
12:00 AM 45.8°F7.7°C 41.6°F5.3°C 85% 2.0 mph WSW3.2 kmh WSW 2.0 mph3.2 kmh 29.62 in1003.0 mb 0.00 in0.0 mm 0.00 in0.0 mm 0.00 in0.0 mm